This is the latest recevied weather packets stored in our database for station/object K7LDN-13. If no packets are shown the sender has not sent any weather packets the latest 1 day(s).
| Time | Temp. | Humidity | Pressure | Rain* | Wind** | Luminosity | Snow |
|---|---|---|---|---|---|---|---|
| 1778034096 | 12.78° C | 54% | 1012.2 hPa | 0 mm | - | 5 W/m² | - |
| 1778033794 | 12.78° C | 53% | 1012 hPa | 0 mm | - | 11 W/m² | - |
| 1778033491 | 12.78° C | 52% | 1011.9 hPa | 0 mm | - | 14 W/m² | - |
| 1778033188 | 13.33° C | 51% | 1012 hPa | 0 mm | - | 18 W/m² | - |
| 1778032583 | 13.89° C | 50% | 1012 hPa | 0 mm | - | 29 W/m² | - |
| 1778032280 | 13.89° C | 49% | 1012.2 hPa | 0 mm | - | 34 W/m² | - |
| 1778031068 | 14.44° C | 47% | 1012 hPa | 0 mm | - | 60 W/m² | - |
| 1778030764 | 15° C | 47% | 1012 hPa | 0 mm | - | 69 W/m² | - |
| 1778030460 | 15° C | 47% | 1011.9 hPa | 0 mm | - | 80 W/m² | - |
| 1778030153 | 15° C | 47% | 1011.9 hPa | 0 mm | - | 91 W/m² | - |
| 1778029849 | 15° C | 46% | 1011.9 hPa | 0 mm | - | 106 W/m² | - |
| 1778028941 | 15.56° C | 46% | 1012 hPa | 0 mm | - | 145 W/m² | - |
| 1778028335 | 15.56° C | 46% | 1011.8 hPa | 0 mm | - | 173 W/m² | - |
| 1778028032 | 15.56° C | 47% | 1012.2 hPa | 0 mm | - | 188 W/m² | - |
| 1778027728 | 15.56° C | 46% | 1012 hPa | 0 mm | - | 207 W/m² | - |
| 1778027424 | 15.56° C | 46% | 1012 hPa | 0 mm | - | 220 W/m² | - |
| 1778027120 | 15.56° C | 47% | 1012 hPa | 0 mm | - | 232 W/m² | - |
| 1778026816 | 15° C | 47% | 1012.3 hPa | 0 mm | - | 246 W/m² | - |
| 1778026210 | 15.56° C | 47% | 1012.2 hPa | 0 mm | - | 278 W/m² | - |
| 1778024999 | 15° C | 47% | 1012.2 hPa | 0 mm | - | 357 W/m² | - |
| 1778024393 | 14.44° C | 50% | 1012.2 hPa | 0 mm | - | 391 W/m² | - |
| 1778023486 | 14.44° C | 53% | 1012.4 hPa | 0 mm | - | 445 W/m² | - |
| 1778023183 | 14.44° C | 54% | 1012.5 hPa | 0 mm | - | 428 W/m² | - |
| 1778022578 | 13.33° C | 54% | 1012.4 hPa | 0 mm | - | 130 W/m² | - |
| 1778021669 | 13.89° C | 55% | 1012.8 hPa | 0 mm | - | 296 W/m² | - |
* Rain latest hour (hover to see other rain measurements)
** Current wind speed in m/s (hover to see current wind gust speed)